Observation data for Tatum on 01/10/2018      Previous  Date  Next       Current Mesonet Observations  Soil Data  Daily Summary Page  Observations in Plain Language
KTAT 100600Z 24009KT 07/M02 A299 RMK A01 T00691016  RH  055%=      5-min Rain = 0
KTAT 100605Z 24009KT 06/M02 A299 RMK A01 T00631017  RH  057%=      5-min Rain = 0
KTAT 100610Z 23009KT 06/M02 A299 RMK A01 T00581017  RH  059%=      5-min Rain = 0
KTAT 100615Z 23009KT 06/M02 A299 RMK A01 T00591016  RH  059%=      5-min Rain = 0
KTAT 100620Z 24009KT 06/M02 A2989 RMK A01 T00591016  RH  059%=      5-min Rain = 0
KTAT 100625Z 24009KT 06/M02 A2989 RMK A01 T00581016  RH  060%=      5-min Rain = 0
KTAT 100630Z 24009KT 06/M02 A2989 RMK A01 T00551017  RH  060%=      5-min Rain = 0
KTAT 100635Z 24008KT 05/M02 A2988 RMK A01 T00531017  RH  061%=      5-min Rain = 0
KTAT 100640Z 23009KT 05/M02 A2988 RMK A01 T00521018  RH  061%=      5-min Rain = 0
KTAT 100645Z 23009KT 05/M02 A2988 RMK A01 T00501018  RH  062%=      5-min Rain = 0
KTAT 100650Z 24009KT 05/M02 A2988 RMK A01 T00491019  RH  062%=      5-min Rain = 0
KTAT 100655Z 24009KT 05/M02 A2988 RMK A01 T00501018  RH  062%=      5-min Rain = 0
KTAT 100700Z 24008KT 05/M02 A2988 RMK A01 T00511018  RH  062%=      5-min Rain = 0
KTAT 100705Z 23008KT 05/M02 A2988 RMK A01 T00491019  RH  062%=      5-min Rain = 0
KTAT 100710Z 23007KT 05/M02 A2987 RMK A01 T00471020  RH  063%=      5-min Rain = 0
KTAT 100715Z 23006KT 04/M02 A2987 RMK A01 T00441021  RH  063%=      5-min Rain = 0
KTAT 100720Z 23007KT 04/M02 A2987 RMK A01 T00431021  RH  064%=      5-min Rain = 0
KTAT 100725Z 23006KT 04/M02 A2986 RMK A01 T00431021  RH  064%=      5-min Rain = 0
KTAT 100730Z 23006KT 04/M02 A2986 RMK A01 T00441020  RH  064%=      5-min Rain = 0
KTAT 100735Z 24006KT 05/M02 A2986 RMK A01 T00471018  RH  063%=      5-min Rain = 0
KTAT 100740Z 23006KT 05/M02 A2986 RMK A01 T00531015  RH  062%=      5-min Rain = 0
KTAT 100745Z 23006KT 06/M01 A2986 RMK A01 T00571014  RH  061%=      5-min Rain = 0
KTAT 100750Z 23006KT 06/M01 A2985 RMK A01 T00591014  RH  060%=      5-min Rain = 0
KTAT 100755Z 24006KT 06/M01 A2985 RMK A01 T00611012  RH  060%=      5-min Rain = 0
KTAT 100800Z 23006KT 07/M01 A2986 RMK A01 T00651010  RH  060%=      5-min Rain = 0
KTAT 100805Z 20007KT 07/M01 A2986 RMK A01 T00681007  RH  059%=      5-min Rain = 0
KTAT 100810Z 20007KT 08/M00 A2985 RMK A01 T00791002  RH  057%=      5-min Rain = 0
KTAT 100815Z 20007KT 09/M00 A2985 RMK A01 T00881002  RH  054%=      5-min Rain = 0
KTAT 100820Z 19007KT 09/M00 A2985 RMK A01 T00941003  RH  051%=      5-min Rain = 0
KTAT 100825Z 19007KT 10/M00 A2985 RMK A01 T00961004  RH  050%=      5-min Rain = 0
KTAT 100830Z 21007KT 10/M01 A2985 RMK A01 T00951006  RH  050%=      5-min Rain = 0
KTAT 100835Z 20006KT 09/M01 A2984 RMK A01 T00941006  RH  050%=      5-min Rain = 0
KTAT 100840Z 19006KT 09/M01 A2984 RMK A01 T00911007  RH  051%=      5-min Rain = 0
KTAT 100845Z 18006KT 09/M01 A2984 RMK A01 T00881008  RH  052%=      5-min Rain = 0
KTAT 100850Z 18007KT 09/M01 A2983 RMK A01 T00861008  RH  052%=      5-min Rain = 0
KTAT 100855Z 18007KT 09/M01 A2983 RMK A01 T00851007  RH  053%=      5-min Rain = 0
KTAT 100900Z 20007KT 09/M01 A2983 RMK A01 T00871006  RH  053%=      5-min Rain = 0
KTAT 100905Z 19008KT 09/M01 A2983 RMK A01 T00881005  RH  052%=      5-min Rain = 0
KTAT 100910Z 20009KT 09/M01 A2983 RMK A01 T00891006  RH  052%=      5-min Rain = 0
KTAT 100915Z 20009KT 09/M01 A2983 RMK A01 T00901006  RH  052%=      5-min Rain = 0
KTAT 100920Z 20009KT 09/M01 A2982 RMK A01 T00891007  RH  052%=      5-min Rain = 0
KTAT 100925Z 21009KT 09/M01 A2982 RMK A01 T00881007  RH  052%=      5-min Rain = 0
KTAT 100930Z 21009KT 09/M01 A2982 RMK A01 T00881007  RH  052%=      5-min Rain = 0
KTAT 100935Z 20009KT 09/M01 A2982 RMK A01 T00871007  RH  052%=      5-min Rain = 0
KTAT 100940Z 19009KT 08/M01 A2983 RMK A01 T00841008  RH  053%=      5-min Rain = 0
KTAT 100945Z 19008KT 08/M01 A2983 RMK A01 T00821008  RH  054%=      5-min Rain = 0
KTAT 100950Z 20008KT 08/M01 A2982 RMK A01 T00821008  RH  054%=      5-min Rain = 0
KTAT 100955Z 20008KT 08/M01 A2982 RMK A01 T00821008  RH  054%=      5-min Rain = 0
KTAT 101000Z 20008KT 08/M01 A2982 RMK A01 T00821008  RH  054%=      5-min Rain = 0
KTAT 101005Z 21007KT 08/M01 A2982 RMK A01 T00811008  RH  054%=      5-min Rain = 0
KTAT 101010Z 21007KT 08/M01 A2982 RMK A01 T00801008  RH  055%=      5-min Rain = 0
KTAT 101015Z 21007KT 08/M01 A2982 RMK A01 T00791008  RH  055%=      5-min Rain = 0
KTAT 101020Z 22006KT 08/M01 A2981 RMK A01 T00781008  RH  055%=      5-min Rain = 0
KTAT 101025Z 21006KT 08/M01 A2981 RMK A01 T00771008  RH  055%=      5-min Rain = 0
KTAT 101030Z 20007KT 08/M01 A2981 RMK A01 T00771008  RH  056%=      5-min Rain = 0
KTAT 101035Z 21007KT 08/M01 A2981 RMK A01 T00781008  RH  055%=      5-min Rain = 0
KTAT 101040Z 22007KT 08/M01 A2981 RMK A01 T00791008  RH  055%=      5-min Rain = 0
KTAT 101045Z 22007KT 08/M01 A2981 RMK A01 T00801008  RH  055%=      5-min Rain = 0
KTAT 101050Z 22007KT 08/M01 A2981 RMK A01 T00811008  RH  054%=      5-min Rain = 0
KTAT 101055Z 23007KT 08/M01 A2981 RMK A01 T00831007  RH  053%=      5-min Rain = 0
KTAT 101100Z 22007KT 08/M01 A2981 RMK A01 T00841008  RH  053%=      5-min Rain = 0
KTAT 101105Z 23007KT 08/M01 A2981 RMK A01 T00841008  RH  053%=      5-min Rain = 0
KTAT 101110Z 23007KT 09/M01 A298 RMK A01 T00861008  RH  052%=      5-min Rain = 0
KTAT 101115Z 23007KT 09/M01 A298 RMK A01 T00871007  RH  052%=      5-min Rain = 0
KTAT 101120Z 23007KT 09/M01 A298 RMK A01 T00891007  RH  051%=      5-min Rain = 0
KTAT 101125Z 23007KT 09/M01 A2979 RMK A01 T00891007  RH  051%=      5-min Rain = 0
KTAT 101130Z 23006KT 09/M01 A2979 RMK A01 T00891007  RH  052%=      5-min Rain = 0
KTAT 101135Z 22006KT 09/M01 A2979 RMK A01 T00891007  RH  051%=      5-min Rain = 0
KTAT 101140Z 22007KT 09/M01 A2979 RMK A01 T00901007  RH  051%=      5-min Rain = 0
KTAT 101145Z 21007KT 09/M01 A2978 RMK A01 T00901008  RH  051%=      5-min Rain = 0
KTAT 101150Z 21007KT 09/M01 A2978 RMK A01 T00871009  RH  052%=      5-min Rain = 0
KTAT 101155Z 21007KT 08/M01 A2978 RMK A01 T00821010  RH  053%=      5-min Rain = 0
KTAT 101200Z 22008KT 08/M01 A2978 RMK A01 T00771010  RH  055%=      5-min Rain = 0
KTAT 101205Z 19008KT 07/M01 A2978 RMK A01 T00721011  RH  056%=      5-min Rain = 0
KTAT 101210Z 19008KT 07/M01 A2978 RMK A01 T00661013  RH  058%=      5-min Rain = 0
KTAT 101215Z 18007KT 06/M01 A2977 RMK A01 T00591014  RH  060%=      5-min Rain = 0
KTAT 101220Z 19007KT 06/M01 A2977 RMK A01 T00561013  RH  062%=      5-min Rain = 0
KTAT 101225Z 20008KT 05/M02 A2977 RMK A01 T00521015  RH  063%=      5-min Rain = 0
KTAT 101230Z 20008KT 05/M02 A2977 RMK A01 T00481016  RH  064%=      5-min Rain = 0
KTAT 101235Z 21008KT 04/M02 A2977 RMK A01 T00431018  RH  065%=      5-min Rain = 0
KTAT 101240Z 21008KT 04/M02 A2977 RMK A01 T00381019  RH  067%=      5-min Rain = 0
KTAT 101245Z 21009KT 04/M02 A2977 RMK A01 T00351020  RH  068%=      5-min Rain = 0
KTAT 101250Z 21009KT 04/M02 A2977 RMK A01 T00361018  RH  069%=      5-min Rain = 0
KTAT 101255Z 21009KT 04/M01 A2977 RMK A01 T00421014  RH  067%=      5-min Rain = 0
KTAT 101300Z 21008KT 05/M02 A2977 RMK A01 T00451015  RH  066%=      5-min Rain = 0
KTAT 101305Z 20008KT 04/M02 A2977 RMK A01 T00441016  RH  066%=      5-min Rain = 0
KTAT 101310Z 20008KT 04/M02 A2977 RMK A01 T00431017  RH  066%=      5-min Rain = 0
KTAT 101315Z 20008KT 04/M02 A2977 RMK A01 T00401018  RH  067%=      5-min Rain = 0
KTAT 101320Z 21007KT 04/M02 A2977 RMK A01 T00381019  RH  067%=      5-min Rain = 0
KTAT 101325Z 21007KT 03/M02 A2977 RMK A01 T00341020  RH  068%=      5-min Rain = 0
KTAT 101330Z 21007KT 03/M02 A2977 RMK A01 T00291022  RH  070%=      5-min Rain = 0
KTAT 101335Z 21007KT 03/M02 A2976 RMK A01 T00271022  RH  071%=      5-min Rain = 0
KTAT 101340Z 23007KT 03/M02 A2976 RMK A01 T00251023  RH  071%=      5-min Rain = 0
KTAT 101345Z 22008KT 02/M03 A2976 RMK A01 T00201025  RH  072%=      5-min Rain = 0
KTAT 101350Z 21007KT 02/M03 A2976 RMK A01 T00191025  RH  074%=      5-min Rain = 0
KTAT 101355Z 21007KT 02/M03 A2976 RMK A01 T00181026  RH  074%=      5-min Rain = 0
KTAT 101400Z 21009KT 02/M02 A2976 RMK A01 T00181024  RH  074%=      5-min Rain = 0
KTAT 101405Z 21008KT 02/M02 A2976 RMK A01 T00211023  RH  074%=      5-min Rain = 0
KTAT 101410Z 20009KT 02/M02 A2976 RMK A01 T00221023  RH  073%=      5-min Rain = 0
KTAT 101415Z 21007KT 02/M02 A2976 RMK A01 T00221023  RH  073%=      5-min Rain = 0
KTAT 101420Z 22007KT 02/M02 A2976 RMK A01 T00231021  RH  073%=      5-min Rain = 0
KTAT 101425Z 22008KT 03/M02 A2976 RMK A01 T00291017  RH  072%=      5-min Rain = 0
KTAT 101430Z 22008KT 04/M01 A2976 RMK A01 T00401013  RH  069%=      5-min Rain = 0
KTAT 101435Z 22008KT 05/M01 A2976 RMK A01 T00541009  RH  064%=      5-min Rain = 0
KTAT 101440Z 22009KT 07/M01 A2976 RMK A01 T00661008  RH  060%=      5-min Rain = 0
KTAT 101445Z 22011KT 08/M01 A2976 RMK A01 T00791007  RH  055%=      5-min Rain = 0
KTAT 101450Z 22011KT 09/M01 A2976 RMK A01 T00911006  RH  051%=      5-min Rain = 0
KTAT 101455Z 22012KT 10/M01 A2976 RMK A01 T00991007  RH  048%=      5-min Rain = 0
KTAT 101500Z 22012KT 11/M01 A2976 RMK A01 T01061007  RH  046%=      5-min Rain = 0
KTAT 101505Z 22013KT 11/M01 A2976 RMK A01 T01121008  RH  044%=      5-min Rain = 0
KTAT 101510Z 22011KT 12/M01 A2976 RMK A01 T01161008  RH  043%=      5-min Rain = 0
KTAT 101515Z 21011KT 12/M01 A2976 RMK A01 T01201008  RH  042%=      5-min Rain = 0
KTAT 101520Z 21012KT 12/M01 A2976 RMK A01 T01241008  RH  041%=      5-min Rain = 0
KTAT 101525Z 21012KT 13/M01 A2976 RMK A01 T01271008  RH  040%=      5-min Rain = 0
KTAT 101530Z 21011KT 13/M01 A2976 RMK A01 T01321008  RH  039%=      5-min Rain = 0
KTAT 101535Z 21012KT 14/M01 A2976 RMK A01 T01391010  RH  036%=      5-min Rain = 0
KTAT 101540Z 21012G17KT 15/M01 A2976 RMK A01 T01461010  RH  034%=      5-min Rain = 0
KTAT 101545Z 22013KT 16/M01 A2976 RMK A01 T01551010  RH  033%=      5-min Rain = 0
KTAT 101550Z 22015KT 16/M01 A2976 RMK A01 T01621011  RH  031%=      5-min Rain = 0
KTAT 101555Z 23013KT 17/M01 A2975 RMK A01 T01681011  RH  030%=      5-min Rain = 0
KTAT 101600Z 23016KT 17/M01 A2975 RMK A01 T01711014  RH  029%=      5-min Rain = 0
KTAT 101605Z 23015G20KT 18/M01 A2975 RMK A01 T01751014  RH  028%=      5-min Rain = 0
KTAT 101610Z 23017KT 18/M02 A2975 RMK A01 T01781015  RH  027%=      5-min Rain = 0
KTAT 101615Z 23017G22KT 18/M02 A2975 RMK A01 T01831016  RH  026%=      5-min Rain = 0
KTAT 101620Z 23019G27KT 18/M02 A2975 RMK A01 T01841018  RH  026%=      5-min Rain = 0
KTAT 101625Z 23016G25KT 19/M02 A2975 RMK A01 T01891017  RH  025%=      5-min Rain = 0
KTAT 101630Z 23020G26KT 19/M02 A2975 RMK A01 T01911018  RH  024%=      5-min Rain = 0
KTAT 101635Z 24021G30KT 19/M02 A2975 RMK A01 T01901019  RH  025%=      5-min Rain = 0
KTAT 101640Z 24026G34KT 19/M02 A2975 RMK A01 T01871017  RH  025%=      5-min Rain = 0
KTAT 101645Z 25020G30KT 19/M01 A2975 RMK A01 T01901014  RH  025%=      5-min Rain = 0
KTAT 101650Z 24023G33KT 19/M01 A2975 RMK A01 T01901014  RH  025%=      5-min Rain = 0
KTAT 101655Z 24023G31KT 19/M01 A2975 RMK A01 T01881013  RH  026%=      5-min Rain = 0
KTAT 101700Z 24023G33KT 19/M01 A2974 RMK A01 T01891013  RH  026%=      5-min Rain = 0
KTAT 101705Z 24023G31KT 19/M01 A2974 RMK A01 T01921014  RH  025%=      5-min Rain = 0
KTAT 101710Z 25021G28KT 19/M01 A2974 RMK A01 T01901014  RH  025%=      5-min Rain = 0
KTAT 101715Z 25026G33KT 19/M01 A2973 RMK A01 T01931014  RH  025%=      5-min Rain = 0
KTAT 101720Z 25026G34KT 19/M01 A2973 RMK A01 T01911014  RH  025%=      5-min Rain = 0
KTAT 101725Z 24025G33KT 19/M01 A2973 RMK A01 T01941014  RH  025%=      5-min Rain = 0
KTAT 101730Z 25027G34KT 19/M01 A2973 RMK A01 T01941014  RH  025%=      5-min Rain = 0
KTAT 101735Z 25024G29KT 19/M01 A2972 RMK A01 T01941014  RH  025%=      5-min Rain = 0
KTAT 101740Z 25025G32KT 20/M01 A2972 RMK A01 T01951014  RH  025%=      5-min Rain = 0
KTAT 101745Z 24027G34KT 19/M01 A2972 RMK A01 T01931014  RH  025%=      5-min Rain = 0
KTAT 101750Z 25027G33KT 19/M02 A2972 RMK A01 T01941015  RH  025%=      5-min Rain = 0
KTAT 101755Z 25026G31KT 20/M01 A2971 RMK A01 T01951013  RH  025%=      5-min Rain = 0
KTAT 101800Z 24026G32KT 20/M01 A2971 RMK A01 T01971014  RH  024%=      5-min Rain = 0
KTAT 101805Z 24027G34KT 20/M02 A2971 RMK A01 T01961016  RH  024%=      5-min Rain = 0
KTAT 101810Z 24026G33KT 20/M02 A297 RMK A01 T01971016  RH  024%=      5-min Rain = 0
KTAT 101815Z 24028G36KT 20/M02 A297 RMK A01 T01961016  RH  024%=      5-min Rain = 0
KTAT 101820Z 25027G33KT 20/M02 A2969 RMK A01 T01971018  RH  024%=      5-min Rain = 0
KTAT 101825Z 24027G34KT 20/M02 A2969 RMK A01 T01971017  RH  024%=      5-min Rain = 0
KTAT 101830Z 24026G36KT 20/M02 A2969 RMK A01 T01971017  RH  024%=      5-min Rain = 0
KTAT 101835Z 25029G38KT 20/M02 A2968 RMK A01 T01981018  RH  023%=      5-min Rain = 0
KTAT 101840Z 23029G38KT 20/M02 A2968 RMK A01 T01981018  RH  023%=      5-min Rain = 0
KTAT 101845Z 23031G38KT 20/M02 A2967 RMK A01 T01991019  RH  023%=      5-min Rain = 0
KTAT 101850Z 24030G37KT 20/M02 A2967 RMK A01 T01971020  RH  023%=      5-min Rain = 0
KTAT 101855Z 23028G35KT 20/M02 A2967 RMK A01 T01991022  RH  023%=      5-min Rain = 0
KTAT 101900Z 22032G39KT 20/M02 A2966 RMK A01 T02001024  RH  022%=      5-min Rain = 0
KTAT 101905Z 22031G42KT 20/M03 A2967 RMK A01 T01991027  RH  022%=      5-min Rain = 0
KTAT 101910Z 23030G37KT 20/M03 A2966 RMK A01 T01961025  RH  023%=      5-min Rain = 0
KTAT 101915Z 23029G37KT 20/M03 A2966 RMK A01 T01961025  RH  023%=      5-min Rain = 0
KTAT 101920Z 23028G38KT 20/M03 A2965 RMK A01 T01991025  RH  022%=      5-min Rain = 0
KTAT 101925Z 24031G40KT 20/M03 A2965 RMK A01 T02011029  RH  021%=      5-min Rain = 0
KTAT 101930Z 24030G41KT 20/M03 A2964 RMK A01 T02001026  RH  022%=      5-min Rain = 0
KTAT 101935Z 24032G39KT 20/M02 A2964 RMK A01 T01971024  RH  023%=      5-min Rain = 0
KTAT 101940Z 23033G42KT 20/M02 A2964 RMK A01 T01961023  RH  023%=      5-min Rain = 0
KTAT 101945Z 24034G45KT 19/M02 A2964 RMK A01 T01931020  RH  024%=      5-min Rain = 0
KTAT 101950Z 24034G42KT 19/M02 A2964 RMK A01 T01901016  RH  025%=      5-min Rain = 0
KTAT 101955Z 23032G42KT 19/M01 A2964 RMK A01 T01911011  RH  026%=      5-min Rain = 0
KTAT 102000Z 24031G43KT 19/M01 A2964 RMK A01 T01931007  RH  026%=      5-min Rain = 0
KTAT 102005Z 25033G46KT 19/M01 A2964 RMK A01 T01931006  RH  027%=      5-min Rain = 0
KTAT 102010Z 25038G47KT 19/M01 A2964 RMK A01 T01861010  RH  027%=      5-min Rain = 0
KTAT 102015Z 25034G45KT 18/M01 A2964 RMK A01 T01841007  RH  028%=      5-min Rain = 0
KTAT 102020Z 25033G40KT 18/M00 A2964 RMK A01 T01821003  RH  029%=      5-min Rain = 0
KTAT 102025Z 25030G43KT 18/M00 A2964 RMK A01 T01831001  RH  029%=      5-min Rain = 0
KTAT 102030Z 25030G39KT 18/00 A2964 RMK A01 T01820002  RH  030%=      5-min Rain = 0
KTAT 102035Z 25029G41KT 18/00 A2964 RMK A01 T01830003  RH  030%=      5-min Rain = 0
KTAT 102040Z 24032G41KT 17/M00 A2964 RMK A01 T01721001  RH  031%=      5-min Rain = 0
KTAT 102045Z 28026G38KT 16/00 A2965 RMK A01 T01580003  RH  035%=      5-min Rain = 0
KTAT 102050Z 29026G34KT 14/01 A2966 RMK A01 T01370007  RH  041%=      5-min Rain = 0
KTAT 102055Z 29027G33KT 13/01 A2967 RMK A01 T01330011  RH  044%=      5-min Rain = 0
KTAT 102100Z 29025G31KT 13/02 A2968 RMK A01 T01300015  RH  046%=      5-min Rain = 0
KTAT 102105Z 28025G33KT 13/02 A2969 RMK A01 T01250023  RH  050%=      5-min Rain = 0
KTAT 102110Z 29025G30KT 11/04 A2969 RMK A01 T01100043  RH  064%=      5-min Rain = 0
KTAT 102115Z 28021G29KT 10/05 A2969 RMK A01 T01010048  RH  070%=      5-min Rain = 0
KTAT 102120Z 29020G26KT 10/05 A2969 RMK A01 T01030047  RH  069%=      5-min Rain = 0
KTAT 102125Z 29018G23KT 10/05 A2969 RMK A01 T01000053  RH  073%=      5-min Rain = 0
KTAT 102130Z 29016G21KT 10/05 A2969 RMK A01 T01010050  RH  072%=      5-min Rain = 0
KTAT 102135Z 28013KT 10/05 A2968 RMK A01 T01040048  RH  069%=      5-min Rain = 0
KTAT 102140Z 28012KT 10/05 A2969 RMK A01 T01040048  RH  069%=      5-min Rain = 0
KTAT 102145Z 28013G18KT 10/05 A2969 RMK A01 T01020046  RH  069%=      5-min Rain = 0
KTAT 102150Z 27013KT 10/04 A2968 RMK A01 T01010044  RH  068%=      5-min Rain = 0
KTAT 102155Z 26014G19KT 10/04 A2969 RMK A01 T01020041  RH  067%=      5-min Rain = 0
KTAT 102200Z 26011G17KT 10/04 A2968 RMK A01 T01010043  RH  068%=      5-min Rain = 0
KTAT 102205Z 25012KT 10/04 A2968 RMK A01 T01010039  RH  066%=      5-min Rain = 0
KTAT 102210Z 24010KT 10/04 A2967 RMK A01 T01020039  RH  066%=      5-min Rain = 0
KTAT 102215Z 23010KT 10/04 A2967 RMK A01 T01020041  RH  067%=      5-min Rain = 0
KTAT 102220Z 21011KT 10/04 A2967 RMK A01 T01020041  RH  067%=      5-min Rain = 0
KTAT 102225Z 21012G17KT 10/04 A2967 RMK A01 T01030038  RH  065%=      5-min Rain = 0
KTAT 102230Z 21016G22KT 10/04 A2967 RMK A01 T01040035  RH  063%=      5-min Rain = 0
KTAT 102235Z 21017KT 11/04 A2967 RMK A01 T01050035  RH  063%=      5-min Rain = 0
KTAT 102240Z 20014KT 11/04 A2967 RMK A01 T01050038  RH  064%=      5-min Rain = 0
KTAT 102245Z 20016KT 10/04 A2966 RMK A01 T01040036  RH  063%=      5-min Rain = 0
KTAT 102250Z 20019G25KT 10/03 A2967 RMK A01 T01030030  RH  061%=      5-min Rain = 0
KTAT 102255Z 21019G25KT 10/03 A2967 RMK A01 T01020025  RH  060%=      5-min Rain = 0
KTAT 102300Z 22017G24KT 10/02 A2967 RMK A01 T00990021  RH  059%=      5-min Rain = 0
KTAT 102305Z 23019G27KT 10/02 A2967 RMK A01 T00970018  RH  058%=      5-min Rain = 0
KTAT 102310Z 24018G23KT 10/01 A2966 RMK A01 T00960013  RH  057%=      5-min Rain = 0
KTAT 102315Z 24016G21KT 10/02 A2966 RMK A01 T00960016  RH  058%=      5-min Rain = 0
KTAT 102320Z 24016G23KT 10/02 A2966 RMK A01 T00950015  RH  058%=      5-min Rain = 0
KTAT 102325Z 24017G24KT 09/02 A2967 RMK A01 T00940016  RH  059%=      5-min Rain = 0
KTAT 102330Z 24017G22KT 09/02 A2967 RMK A01 T00930016  RH  059%=      5-min Rain = 0
KTAT 102335Z 24017G23KT 09/02 A2966 RMK A01 T00940016  RH  059%=      5-min Rain = 0
KTAT 102340Z 24017G24KT 10/02 A2966 RMK A01 T00950016  RH  058%=      5-min Rain = 0
KTAT 102345Z 24020G25KT 10/02 A2966 RMK A01 T00950015  RH  058%=      5-min Rain = 0
KTAT 102350Z 24017G22KT 09/02 A2966 RMK A01 T00920015  RH  059%=      5-min Rain = 0
KTAT 102355Z 24015G21KT 09/02 A2966 RMK A01 T00900015  RH  060%=      5-min Rain = 0
KTAT 110000Z 24014G19KT 09/02 A2967 RMK A01 T00890015  RH  061%=      5-min Rain = 0
KTAT 110005Z 23013KT 09/02 A2967 RMK A01 T00870015  RH  061%=      5-min Rain = 0
KTAT 110010Z 23012G17KT 09/02 A2967 RMK A01 T00860015  RH  062%=      5-min Rain = 0
KTAT 110015Z 23013G18KT 09/02 A2966 RMK A01 T00860016  RH  062%=      5-min Rain = 0
KTAT 110020Z 24011KT 09/02 A2966 RMK A01 T00860017  RH  063%=      5-min Rain = 0
KTAT 110025Z 26008KT 08/02 A2967 RMK A01 T00800015  RH  064%=      5-min Rain = 0
KTAT 110030Z 25009KT 08/02 A2966 RMK A01 T00750015  RH  066%=      5-min Rain = 0
KTAT 110035Z 24013KT 08/02 A2966 RMK A01 T00790015  RH  065%=      5-min Rain = 0
KTAT 110040Z 24012G17KT 08/01 A2966 RMK A01 T00820014  RH  063%=      5-min Rain = 0
KTAT 110045Z 25016G22KT 09/01 A2966 RMK A01 T00860013  RH  061%=      5-min Rain = 0
KTAT 110050Z 26018G24KT 09/01 A2967 RMK A01 T00930010  RH  057%=      5-min Rain = 0
KTAT 110055Z 27029G40KT 09/02 A2967 RMK A01 T00930015  RH  059%=      5-min Rain = 0
KTAT 110100Z 29016G27KT 08/03 A2967 RMK A01 T00790026  RH  070%=      5-min Rain = 0
KTAT 110105Z 29013G18KT 07/03 A2967 RMK A01 T00740030  RH  074%=      5-min Rain = 0
KTAT 110110Z 28014KT 07/03 A2967 RMK A01 T00720028  RH  075%=      5-min Rain = 0
KTAT 110115Z 29013G18KT 07/03 A2968 RMK A01 T00690029  RH  077%=      5-min Rain = 0
KTAT 110120Z 28010KT 07/03 A2968 RMK A01 T00660029  RH  079%=      5-min Rain = 0
KTAT 110125Z 28010KT 06/03 A2967 RMK A01 T00620028  RH  080%=      5-min Rain = 0
KTAT 110130Z 28009KT 06/03 A2967 RMK A01 T00600026  RH  080%=      5-min Rain = 0
KTAT 110135Z 28008KT 06/02 A2967 RMK A01 T00550023  RH  081%=      5-min Rain = 0
KTAT 110140Z 28007KT 05/02 A2967 RMK A01 T00520021  RH  081%=      5-min Rain = 0
KTAT 110145Z 26009KT 05/02 A2967 RMK A01 T00470018  RH  083%=      5-min Rain = 0
KTAT 110150Z 25008KT 04/02 A2967 RMK A01 T00440018  RH  084%=      5-min Rain = 0
KTAT 110155Z 25008KT 04/01 A2967 RMK A01 T00390014  RH  085%=      5-min Rain = 0
KTAT 110200Z 26009KT 04/02 A2966 RMK A01 T00390016  RH  086%=      5-min Rain = 0
KTAT 110205Z 26010KT 05/02 A2966 RMK A01 T00470018  RH  083%=      5-min Rain = 0
KTAT 110210Z 27012KT 06/02 A2966 RMK A01 T00550017  RH  078%=      5-min Rain = 0
KTAT 110215Z 26012KT 06/02 A2965 RMK A01 T00580016  RH  075%=      5-min Rain = 0
KTAT 110220Z 26012G17KT 06/01 A2966 RMK A01 T00580014  RH  075%=      5-min Rain = 0
KTAT 110225Z 26012KT 06/01 A2966 RMK A01 T00560013  RH  074%=      5-min Rain = 0
KTAT 110230Z 25011KT 05/01 A2966 RMK A01 T00540012  RH  075%=      5-min Rain = 0
KTAT 110235Z 26010KT 05/01 A2966 RMK A01 T00520010  RH  075%=      5-min Rain = 0
KTAT 110240Z 26009KT 05/01 A2966 RMK A01 T00490009  RH  076%=      5-min Rain = 0
KTAT 110245Z 26008KT 05/01 A2967 RMK A01 T00470008  RH  077%=      5-min Rain = 0
KTAT 110250Z 26009KT 05/01 A2967 RMK A01 T00450008  RH  078%=      5-min Rain = 0
KTAT 110255Z 24008KT 04/01 A2967 RMK A01 T00420007  RH  079%=      5-min Rain = 0
KTAT 110300Z 24008KT 04/01 A2967 RMK A01 T00390005  RH  079%=      5-min Rain = 0
KTAT 110305Z 23008KT 04/00 A2967 RMK A01 T00360003  RH  080%=      5-min Rain = 0
KTAT 110310Z 23008KT 03/00 A2967 RMK A01 T00320000  RH  081%=      5-min Rain = 0
KTAT 110315Z 23010KT 03/00 A2967 RMK A01 T00340000  RH  079%=      5-min Rain = 0
KTAT 110320Z 24013KT 04/00 A2967 RMK A01 T00390000  RH  077%=      5-min Rain = 0
KTAT 110325Z 24012KT 04/00 A2967 RMK A01 T004100-0  RH  075%=      5-min Rain = 0
KTAT 110330Z 24012KT 04/M00 A2967 RMK A01 T00401001  RH  076%=      5-min Rain = 0
KTAT 110335Z 24011KT 04/M00 A2967 RMK A01 T00401001  RH  075%=      5-min Rain = 0
KTAT 110340Z 24013KT 04/M00 A2967 RMK A01 T00431001  RH  074%=      5-min Rain = 0
KTAT 110345Z 24013KT 05/M00 A2967 RMK A01 T00451001  RH  073%=      5-min Rain = 0
KTAT 110350Z 24013KT 05/M00 A2967 RMK A01 T00451003  RH  072%=      5-min Rain = 0
KTAT 110355Z 24014KT 05/M00 A2966 RMK A01 T00451003  RH  072%=      5-min Rain = 0
KTAT 110400Z 24014KT 05/M00 A2966 RMK A01 T00461004  RH  071%=      5-min Rain = 0
KTAT 110405Z 24015KT 05/M00 A2966 RMK A01 T00491003  RH  070%=      5-min Rain = 0
KTAT 110410Z 24016KT 05/M00 A2966 RMK A01 T00511002  RH  069%=      5-min Rain = 0
KTAT 110415Z 24016KT 05/M00 A2966 RMK A01 T00541001  RH  068%=      5-min Rain = 0
KTAT 110420Z 24015KT 05/M00 A2966 RMK A01 T00541002  RH  068%=      5-min Rain = 0
KTAT 110425Z 24015G20KT 05/M00 A2966 RMK A01 T00541002  RH  068%=      5-min Rain = 0
KTAT 110430Z 24014KT 05/M00 A2966 RMK A01 T00531003  RH  068%=      5-min Rain = 0
KTAT 110435Z 25014KT 05/M00 A2966 RMK A01 T00521003  RH  069%=      5-min Rain = 0
KTAT 110440Z 25014KT 05/M00 A2966 RMK A01 T00511003  RH  069%=      5-min Rain = 0
KTAT 110445Z 25014KT 05/M00 A2966 RMK A01 T00511003  RH  069%=      5-min Rain = 0
KTAT 110450Z 25014KT 05/M00 A2966 RMK A01 T00511003  RH  069%=      5-min Rain = 0
KTAT 110455Z 24014G19KT 05/M00 A2966 RMK A01 T00501004  RH  069%=      5-min Rain = 0
KTAT 110500Z 24014KT 05/M00 A2966 RMK A01 T00491004  RH  069%=      5-min Rain = 0
KTAT 110505Z 24013KT 05/M01 A2966 RMK A01 T00481005  RH  070%=      5-min Rain = 0
KTAT 110510Z 24013KT 05/M01 A2966 RMK A01 T00471005  RH  070%=      5-min Rain = 0
KTAT 110515Z 24013KT 05/M00 A2966 RMK A01 T00481004  RH  070%=      5-min Rain = 0
KTAT 110520Z 24013KT 05/M00 A2966 RMK A01 T00481004  RH  069%=      5-min Rain = 0
KTAT 110525Z 24014KT 05/M00 A2967 RMK A01 T00511004  RH  068%=      5-min Rain = 0
KTAT 110530Z 24014KT 05/M00 A2966 RMK A01 T00531004  RH  068%=      5-min Rain = 0
KTAT 110535Z 24016KT 05/M00 A2966 RMK A01 T00541004  RH  067%=      5-min Rain = 0
KTAT 110540Z 25016KT 06/M00 A2966 RMK A01 T00571004  RH  066%=      5-min Rain = 0
KTAT 110545Z 25018G24KT 06/M00 A2966 RMK A01 T00591004  RH  065%=      5-min Rain = 0
KTAT 110550Z 25019G24KT 06/M00 A2966 RMK A01 T00621004  RH  063%=      5-min Rain = 0
KTAT 110555Z 25019G25KT 06/M01 A2966 RMK A01 T00631005  RH  063%=      5-min Rain = 0

Page generated in 0.0925 seconds.